sensor_id;sensor_type;location;lat;lon;timestamp;P1;durP1;ratioP1;P2;durP2;ratioP2
74519;SDS011;63002;48.134;-1.948;2024-02-14T06:00:07;3.35;;;0.50;;
74519;SDS011;63002;48.134;-1.948;2024-02-14T06:02:35;3.50;;;0.43;;
74519;SDS011;63002;48.134;-1.948;2024-02-14T06:05:03;1.90;;;0.52;;
74519;SDS011;63002;48.134;-1.948;2024-02-14T06:07:29;1.85;;;0.35;;
74519;SDS011;63002;48.134;-1.948;2024-02-14T06:09:54;2.95;;;0.60;;
74519;SDS011;63002;48.134;-1.948;2024-02-14T06:12:20;3.63;;;0.60;;
74519;SDS011;63002;48.134;-1.948;2024-02-14T06:14:48;3.73;;;0.60;;
74519;SDS011;63002;48.134;-1.948;2024-02-14T06:17:15;2.50;;;0.50;;
74519;SDS011;63002;48.134;-1.948;2024-02-14T06:19:47;3.75;;;0.52;;
74519;SDS011;63002;48.134;-1.948;2024-02-14T06:22:13;7.40;;;1.05;;
74519;SDS011;63002;48.134;-1.948;2024-02-14T06:24:39;4.75;;;0.90;;
74519;SDS011;63002;48.134;-1.948;2024-02-14T06:27:04;17.67;;;4.97;;
74519;SDS011;63002;48.134;-1.948;2024-02-14T06:29:31;34.55;;;7.95;;
74519;SDS011;63002;48.134;-1.948;2024-02-14T06:31:57;21.98;;;6.60;;
74519;SDS011;63002;48.134;-1.948;2024-02-14T06:34:22;22.53;;;6.73;;
74519;SDS011;63002;48.134;-1.948;2024-02-14T06:36:48;29.48;;;6.38;;
74519;SDS011;63002;48.134;-1.948;2024-02-14T06:39:14;10.70;;;2.80;;
74519;SDS011;63002;48.134;-1.948;2024-02-14T06:41:40;15.45;;;2.65;;
74519;SDS011;63002;48.134;-1.948;2024-02-14T06:44:05;15.67;;;2.73;;
74519;SDS011;63002;48.134;-1.948;2024-02-14T06:46:31;12.13;;;2.15;;
74519;SDS011;63002;48.134;-1.948;2024-02-14T06:48:57;11.60;;;2.30;;
74519;SDS011;63002;48.134;-1.948;2024-02-14T06:51:23;14.87;;;2.50;;
74519;SDS011;63002;48.134;-1.948;2024-02-14T06:53:49;12.48;;;2.80;;
74519;SDS011;63002;48.134;-1.948;2024-02-14T06:56:15;14.70;;;2.25;;
74519;SDS011;63002;48.134;-1.948;2024-02-14T06:58:41;9.53;;;1.63;;
74519;SDS011;63002;48.134;-1.948;2024-02-14T07:01:07;8.77;;;1.95;;
74519;SDS011;63002;48.134;-1.948;2024-02-14T07:03:33;7.70;;;1.50;;
74519;SDS011;63002;48.134;-1.948;2024-02-14T07:05:59;8.55;;;2.38;;
74519;SDS011;63002;48.134;-1.948;2024-02-14T07:08:24;8.85;;;1.67;;
74519;SDS011;63002;48.134;-1.948;2024-02-14T07:10:54;8.13;;;1.48;;
74519;SDS011;63002;48.134;-1.948;2024-02-14T07:13:20;16.93;;;2.60;;
74519;SDS011;63002;48.134;-1.948;2024-02-14T07:15:46;16.92;;;4.28;;
74519;SDS011;63002;48.134;-1.948;2024-02-14T07:18:12;21.20;;;4.57;;
74519;SDS011;63002;48.134;-1.948;2024-02-14T07:20:38;20.58;;;3.95;;
74519;SDS011;63002;48.134;-1.948;2024-02-14T07:23:05;18.88;;;4.00;;
74519;SDS011;63002;48.134;-1.948;2024-02-14T07:25:32;18.23;;;3.78;;
74519;SDS011;63002;48.134;-1.948;2024-02-14T07:27:58;21.05;;;3.55;;
74519;SDS011;63002;48.134;-1.948;2024-02-14T07:30:24;13.33;;;3.23;;
74519;SDS011;63002;48.134;-1.948;2024-02-14T07:32:50;12.73;;;3.47;;
74519;SDS011;63002;48.134;-1.948;2024-02-14T07:35:16;17.95;;;3.50;;
74519;SDS011;63002;48.134;-1.948;2024-02-14T07:37:42;11.85;;;2.70;;
74519;SDS011;63002;48.134;-1.948;2024-02-14T07:40:09;13.43;;;2.90;;
74519;SDS011;63002;48.134;-1.948;2024-02-14T07:42:35;11.65;;;2.75;;
74519;SDS011;63002;48.134;-1.948;2024-02-14T07:45:01;12.18;;;2.55;;
74519;SDS011;63002;48.134;-1.948;2024-02-14T07:47:28;9.43;;;2.30;;
74519;SDS011;63002;48.134;-1.948;2024-02-14T07:49:54;13.02;;;2.50;;
74519;SDS011;63002;48.134;-1.948;2024-02-14T07:52:20;9.27;;;2.30;;
74519;SDS011;63002;48.134;-1.948;2024-02-14T07:54:46;8.85;;;2.13;;
74519;SDS011;63002;48.134;-1.948;2024-02-14T07:57:12;11.60;;;2.07;;
74519;SDS011;63002;48.134;-1.948;2024-02-14T07:59:37;9.82;;;2.03;;
74519;SDS011;63002;48.134;-1.948;2024-02-14T08:02:03;9.43;;;1.93;;
74519;SDS011;63002;48.134;-1.948;2024-02-14T08:04:29;8.57;;;1.25;;
74519;SDS011;63002;48.134;-1.948;2024-02-14T08:06:55;7.67;;;1.63;;
74519;SDS011;63002;48.134;-1.948;2024-02-14T08:09:21;8.80;;;1.83;;
74519;SDS011;63002;48.134;-1.948;2024-02-14T08:11:46;10.30;;;1.50;;
74519;SDS011;63002;48.134;-1.948;2024-02-14T08:14:12;6.55;;;1.30;;
74519;SDS011;63002;48.134;-1.948;2024-02-14T08:16:38;8.50;;;1.30;;
74519;SDS011;63002;48.134;-1.948;2024-02-14T08:19:03;4.65;;;1.10;;
74519;SDS011;63002;48.134;-1.948;2024-02-14T08:21:29;6.97;;;1.43;;
74519;SDS011;63002;48.134;-1.948;2024-02-14T08:23:55;7.28;;;1.38;;
74519;SDS011;63002;48.134;-1.948;2024-02-14T08:26:21;9.97;;;1.50;;
74519;SDS011;63002;48.134;-1.948;2024-02-14T08:28:48;6.65;;;1.10;;
74519;SDS011;63002;48.134;-1.948;2024-02-14T08:31:16;8.02;;;1.20;;
74519;SDS011;63002;48.134;-1.948;2024-02-14T08:33:42;5.03;;;0.93;;
74519;SDS011;63002;48.134;-1.948;2024-02-14T08:36:08;7.40;;;1.50;;
74519;SDS011;63002;48.134;-1.948;2024-02-14T08:38:34;7.55;;;1.77;;
74519;SDS011;63002;48.134;-1.948;2024-02-14T08:41:01;9.43;;;1.40;;
74519;SDS011;63002;48.134;-1.948;2024-02-14T08:43:27;7.70;;;1.27;;
74519;SDS011;63002;48.134;-1.948;2024-02-14T08:45:54;6.78;;;1.00;;
74519;SDS011;63002;48.134;-1.948;2024-02-14T08:48:20;6.10;;;1.30;;
74519;SDS011;63002;48.134;-1.948;2024-02-14T08:50:46;7.97;;;1.10;;
74519;SDS011;63002;48.134;-1.948;2024-02-14T08:53:12;5.53;;;0.90;;
74519;SDS011;63002;48.134;-1.948;2024-02-14T08:55:41;4.35;;;0.93;;
74519;SDS011;63002;48.134;-1.948;2024-02-14T08:58:07;6.35;;;1.00;;
74519;SDS011;63002;48.134;-1.948;2024-02-14T09:00:37;6.93;;;1.35;;
74519;SDS011;63002;48.134;-1.948;2024-02-14T09:03:04;5.47;;;1.00;;
74519;SDS011;63002;48.134;-1.948;2024-02-14T09:05:30;6.45;;;1.13;;
74519;SDS011;63002;48.134;-1.948;2024-02-14T09:07:56;7.13;;;1.45;;
74519;SDS011;63002;48.134;-1.948;2024-02-14T09:10:22;4.55;;;1.02;;
74519;SDS011;63002;48.134;-1.948;2024-02-14T09:12:49;6.40;;;0.80;;
74519;SDS011;63002;48.134;-1.948;2024-02-14T09:15:14;5.70;;;1.10;;
74519;SDS011;63002;48.134;-1.948;2024-02-14T09:17:41;5.85;;;1.00;;
74519;SDS011;63002;48.134;-1.948;2024-02-14T09:20:08;6.63;;;1.02;;
74519;SDS011;63002;48.134;-1.948;2024-02-14T09:22:37;4.65;;;0.85;;
74519;SDS011;63002;48.134;-1.948;2024-02-14T09:25:03;6.23;;;1.13;;
74519;SDS011;63002;48.134;-1.948;2024-02-14T09:27:29;6.90;;;1.00;;
74519;SDS011;63002;48.134;-1.948;2024-02-14T09:29:55;4.88;;;0.90;;
74519;SDS011;63002;48.134;-1.948;2024-02-14T09:32:21;7.25;;;0.90;;
74519;SDS011;63002;48.134;-1.948;2024-02-14T09:34:47;4.28;;;0.70;;
74519;SDS011;63002;48.134;-1.948;2024-02-14T09:37:13;5.25;;;0.88;;
74519;SDS011;63002;48.134;-1.948;2024-02-14T09:39:39;7.10;;;0.80;;
74519;SDS011;63002;48.134;-1.948;2024-02-14T09:42:13;7.70;;;1.00;;
74519;SDS011;63002;48.134;-1.948;2024-02-14T09:44:41;15.55;;;1.88;;
74519;SDS011;63002;48.134;-1.948;2024-02-14T09:47:10;9.87;;;1.10;;
74519;SDS011;63002;48.134;-1.948;2024-02-14T09:49:37;8.40;;;1.25;;
74519;SDS011;63002;48.134;-1.948;2024-02-14T09:52:04;9.52;;;1.70;;
74519;SDS011;63002;48.134;-1.948;2024-02-14T09:54:31;6.03;;;0.80;;
74519;SDS011;63002;48.134;-1.948;2024-02-14T09:57:01;4.82;;;1.10;;
74519;SDS011;63002;48.134;-1.948;2024-02-14T09:59:27;6.73;;;1.10;;
74519;SDS011;63002;48.134;-1.948;2024-02-14T10:01:54;6.50;;;0.98;;
74519;SDS011;63002;48.134;-1.948;2024-02-14T10:04:20;9.07;;;1.50;;
74519;SDS011;63002;48.134;-1.948;2024-02-14T10:06:47;7.50;;;1.08;;
74519;SDS011;63002;48.134;-1.948;2024-02-14T10:09:18;7.25;;;1.45;;
74519;SDS011;63002;48.134;-1.948;2024-02-14T10:11:50;6.23;;;1.00;;
74519;SDS011;63002;48.134;-1.948;2024-02-14T10:14:17;6.80;;;1.13;;
74519;SDS011;63002;48.134;-1.948;2024-02-14T10:16:43;11.13;;;1.25;;
74519;SDS011;63002;48.134;-1.948;2024-02-14T10:19:17;9.75;;;1.30;;
74519;SDS011;63002;48.134;-1.948;2024-02-14T10:21:43;9.82;;;1.30;;
74519;SDS011;63002;48.134;-1.948;2024-02-14T10:24:19;5.82;;;0.93;;
74519;SDS011;63002;48.134;-1.948;2024-02-14T10:26:45;7.25;;;1.33;;
74519;SDS011;63002;48.134;-1.948;2024-02-14T10:29:11;5.30;;;0.90;;
74519;SDS011;63002;48.134;-1.948;2024-02-14T10:31:36;7.30;;;1.00;;
74519;SDS011;63002;48.134;-1.948;2024-02-14T10:34:02;6.63;;;1.10;;
74519;SDS011;63002;48.134;-1.948;2024-02-14T10:36:31;6.65;;;0.90;;
74519;SDS011;63002;48.134;-1.948;2024-02-14T10:38:59;8.07;;;1.00;;
74519;SDS011;63002;48.134;-1.948;2024-02-14T10:41:29;6.95;;;1.20;;
74519;SDS011;63002;48.134;-1.948;2024-02-14T10:44:00;4.88;;;0.82;;
74519;SDS011;63002;48.134;-1.948;2024-02-14T10:46:31;5.55;;;0.90;;
74519;SDS011;63002;48.134;-1.948;2024-02-14T10:49:01;6.00;;;1.10;;
74519;SDS011;63002;48.134;-1.948;2024-02-14T10:51:30;5.72;;;1.00;;
74519;SDS011;63002;48.134;-1.948;2024-02-14T10:53:57;8.75;;;1.08;;
74519;SDS011;63002;48.134;-1.948;2024-02-14T10:56:24;6.15;;;1.10;;
74519;SDS011;63002;48.134;-1.948;2024-02-14T10:58:55;5.55;;;1.10;;
74519;SDS011;63002;48.134;-1.948;2024-02-14T11:01:27;5.50;;;0.80;;
74519;SDS011;63002;48.134;-1.948;2024-02-14T11:03:59;5.05;;;1.00;;
74519;SDS011;63002;48.134;-1.948;2024-02-14T11:06:26;4.25;;;0.82;;
74519;SDS011;63002;48.134;-1.948;2024-02-14T11:09:01;4.72;;;0.90;;
74519;SDS011;63002;48.134;-1.948;2024-02-14T11:11:32;5.20;;;1.00;;
74519;SDS011;63002;48.134;-1.948;2024-02-14T11:13:59;6.20;;;1.20;;
74519;SDS011;63002;48.134;-1.948;2024-02-14T11:16:28;6.47;;;0.90;;
74519;SDS011;63002;48.134;-1.948;2024-02-14T11:19:07;4.63;;;0.70;;
74519;SDS011;63002;48.134;-1.948;2024-02-14T11:21:39;5.63;;;0.95;;
74519;SDS011;63002;48.134;-1.948;2024-02-14T11:24:10;7.40;;;1.17;;
74519;SDS011;63002;48.134;-1.948;2024-02-14T11:26:38;7.40;;;1.25;;
74519;SDS011;63002;48.134;-1.948;2024-02-14T11:29:05;4.90;;;1.00;;
74519;SDS011;63002;48.134;-1.948;2024-02-14T11:31:33;6.50;;;1.05;;
74519;SDS011;63002;48.134;-1.948;2024-02-14T11:34:04;5.22;;;0.90;;
74519;SDS011;63002;48.134;-1.948;2024-02-14T11:36:31;6.55;;;1.00;;
74519;SDS011;63002;48.134;-1.948;2024-02-14T11:38:58;3.85;;;0.70;;
74519;SDS011;63002;48.134;-1.948;2024-02-14T11:41:27;5.88;;;0.90;;
74519;SDS011;63002;48.134;-1.948;2024-02-14T11:43:53;5.03;;;0.63;;
74519;SDS011;63002;48.134;-1.948;2024-02-14T11:46:18;4.97;;;0.98;;
74519;SDS011;63002;48.134;-1.948;2024-02-14T11:48:44;4.73;;;0.60;;
74519;SDS011;63002;48.134;-1.948;2024-02-14T11:51:13;6.32;;;0.93;;
74519;SDS011;63002;48.134;-1.948;2024-02-14T11:53:40;4.18;;;0.82;;
74519;SDS011;63002;48.134;-1.948;2024-02-14T11:56:06;6.53;;;0.90;;
74519;SDS011;63002;48.134;-1.948;2024-02-14T11:58:31;5.70;;;0.60;;
74519;SDS011;63002;48.134;-1.948;2024-02-14T12:00:57;5.63;;;0.93;;
74519;SDS011;63002;48.134;-1.948;2024-02-14T12:03:23;5.00;;;0.87;;
74519;SDS011;63002;48.134;-1.948;2024-02-14T12:05:51;6.90;;;0.90;;
74519;SDS011;63002;48.134;-1.948;2024-02-14T12:08:18;4.35;;;0.73;;
74519;SDS011;63002;48.134;-1.948;2024-02-14T12:10:44;5.97;;;1.08;;
74519;SDS011;63002;48.134;-1.948;2024-02-14T12:13:15;7.50;;;1.00;;
74519;SDS011;63002;48.134;-1.948;2024-02-14T12:15:44;8.82;;;0.93;;
74519;SDS011;63002;48.134;-1.948;2024-02-14T12:18:10;4.18;;;0.85;;
74519;SDS011;63002;48.134;-1.948;2024-02-14T12:20:37;3.25;;;0.60;;
74519;SDS011;63002;48.134;-1.948;2024-02-14T12:23:03;6.20;;;0.93;;
74519;SDS011;63002;48.134;-1.948;2024-02-14T12:25:33;6.05;;;1.10;;
74519;SDS011;63002;48.134;-1.948;2024-02-14T12:27:59;8.98;;;1.10;;
74519;SDS011;63002;48.134;-1.948;2024-02-14T12:31:01;5.43;;;0.80;;
74519;SDS011;63002;48.134;-1.948;2024-02-14T12:33:25;4.35;;;0.70;;
74519;SDS011;63002;48.134;-1.948;2024-02-14T12:35:53;8.40;;;0.88;;
74519;SDS011;63002;48.134;-1.948;2024-02-14T12:38:20;5.13;;;0.87;;
74519;SDS011;63002;48.134;-1.948;2024-02-14T12:40:49;5.03;;;0.80;;
74519;SDS011;63002;48.134;-1.948;2024-02-14T12:43:18;7.32;;;1.10;;
74519;SDS011;63002;48.134;-1.948;2024-02-14T12:45:44;7.00;;;1.00;;
74519;SDS011;63002;48.134;-1.948;2024-02-14T12:48:11;5.77;;;0.73;;
74519;SDS011;63002;48.134;-1.948;2024-02-14T12:50:38;6.60;;;1.20;;
74519;SDS011;63002;48.134;-1.948;2024-02-14T12:53:05;5.88;;;1.30;;
74519;SDS011;63002;48.134;-1.948;2024-02-14T12:55:31;5.70;;;1.00;;
74519;SDS011;63002;48.134;-1.948;2024-02-14T12:57:57;5.95;;;1.20;;
74519;SDS011;63002;48.134;-1.948;2024-02-14T13:00:24;5.82;;;1.10;;
74519;SDS011;63002;48.134;-1.948;2024-02-14T13:02:51;7.97;;;1.20;;
74519;SDS011;63002;48.134;-1.948;2024-02-14T13:05:18;7.57;;;1.50;;
74519;SDS011;63002;48.134;-1.948;2024-02-14T13:07:44;6.28;;;1.08;;
74519;SDS011;63002;48.134;-1.948;2024-02-14T13:10:11;7.63;;;1.20;;
74519;SDS011;63002;48.134;-1.948;2024-02-14T13:12:37;8.93;;;0.97;;
74519;SDS011;63002;48.134;-1.948;2024-02-14T13:15:04;6.63;;;1.15;;
74519;SDS011;63002;48.134;-1.948;2024-02-14T13:17:33;6.32;;;1.25;;
74519;SDS011;63002;48.134;-1.948;2024-02-14T13:19:59;5.15;;;1.00;;
74519;SDS011;63002;48.134;-1.948;2024-02-14T13:22:25;8.10;;;1.05;;
74519;SDS011;63002;48.134;-1.948;2024-02-14T13:24:51;7.83;;;1.17;;
74519;SDS011;63002;48.134;-1.948;2024-02-14T13:27:17;6.05;;;1.08;;
74519;SDS011;63002;48.134;-1.948;2024-02-14T13:29:45;6.47;;;1.15;;
74519;SDS011;63002;48.134;-1.948;2024-02-14T13:32:11;4.97;;;1.02;;
74519;SDS011;63002;48.134;-1.948;2024-02-14T13:34:37;6.63;;;0.93;;
74519;SDS011;63002;48.134;-1.948;2024-02-14T13:37:04;8.40;;;1.02;;
74519;SDS011;63002;48.134;-1.948;2024-02-14T13:39:30;6.60;;;0.90;;
74519;SDS011;63002;48.134;-1.948;2024-02-14T13:41:56;6.17;;;0.97;;
74519;SDS011;63002;48.134;-1.948;2024-02-14T13:44:24;7.80;;;1.00;;
74519;SDS011;63002;48.134;-1.948;2024-02-14T13:46:50;6.47;;;1.20;;
74519;SDS011;63002;48.134;-1.948;2024-02-14T13:49:17;6.43;;;0.90;;
74519;SDS011;63002;48.134;-1.948;2024-02-14T13:51:47;6.63;;;0.80;;
74519;SDS011;63002;48.134;-1.948;2024-02-14T13:54:17;5.80;;;1.00;;
74519;SDS011;63002;48.134;-1.948;2024-02-14T13:56:43;6.07;;;0.80;;
74519;SDS011;63002;48.134;-1.948;2024-02-14T13:59:10;6.15;;;1.00;;
74519;SDS011;63002;48.134;-1.948;2024-02-14T14:01:36;5.30;;;0.70;;
74519;SDS011;63002;48.134;-1.948;2024-02-14T14:04:02;4.00;;;0.65;;
74519;SDS011;63002;48.134;-1.948;2024-02-14T14:06:29;4.88;;;0.80;;
74519;SDS011;63002;48.134;-1.948;2024-02-14T14:08:55;5.95;;;0.90;;
74519;SDS011;63002;48.134;-1.948;2024-02-14T14:11:20;3.30;;;0.70;;
74519;SDS011;63002;48.134;-1.948;2024-02-14T14:13:46;4.43;;;0.80;;
74519;SDS011;63002;48.134;-1.948;2024-02-14T14:16:12;3.55;;;0.80;;
74519;SDS011;63002;48.134;-1.948;2024-02-14T14:18:38;4.87;;;0.93;;
74519;SDS011;63002;48.134;-1.948;2024-02-14T14:21:04;5.30;;;0.80;;
74519;SDS011;63002;48.134;-1.948;2024-02-14T14:23:30;4.05;;;0.70;;
74519;SDS011;63002;48.134;-1.948;2024-02-14T14:25:57;4.33;;;0.60;;
74519;SDS011;63002;48.134;-1.948;2024-02-14T14:28:23;4.10;;;0.60;;
74519;SDS011;63002;48.134;-1.948;2024-02-14T14:30:52;7.15;;;0.75;;
74519;SDS011;63002;48.134;-1.948;2024-02-14T14:33:21;3.50;;;0.57;;
74519;SDS011;63002;48.134;-1.948;2024-02-14T14:35:47;4.43;;;0.90;;
74519;SDS011;63002;48.134;-1.948;2024-02-14T14:38:18;4.63;;;0.70;;
74519;SDS011;63002;48.134;-1.948;2024-02-14T14:40:44;3.83;;;0.60;;
74519;SDS011;63002;48.134;-1.948;2024-02-14T14:43:11;3.80;;;0.63;;
74519;SDS011;63002;48.134;-1.948;2024-02-14T14:45:37;5.13;;;0.75;;
74519;SDS011;63002;48.134;-1.948;2024-02-14T14:48:03;3.67;;;0.60;;
74519;SDS011;63002;48.134;-1.948;2024-02-14T14:50:30;4.82;;;0.70;;
74519;SDS011;63002;48.134;-1.948;2024-02-14T14:52:56;5.57;;;0.70;;
74519;SDS011;63002;48.134;-1.948;2024-02-14T14:55:24;3.55;;;0.60;;
74519;SDS011;63002;48.134;-1.948;2024-02-14T14:57:50;5.57;;;0.57;;
74519;SDS011;63002;48.134;-1.948;2024-02-14T15:00:16;4.97;;;0.77;;
74519;SDS011;63002;48.134;-1.948;2024-02-14T15:02:43;4.57;;;0.77;;
74519;SDS011;63002;48.134;-1.948;2024-02-14T15:05:10;2.97;;;0.50;;
74519;SDS011;63002;48.134;-1.948;2024-02-14T15:07:36;4.78;;;0.75;;
74519;SDS011;63002;48.134;-1.948;2024-02-14T15:10:06;4.47;;;0.60;;
74519;SDS011;63002;48.134;-1.948;2024-02-14T15:12:35;3.25;;;0.57;;
74519;SDS011;63002;48.134;-1.948;2024-02-14T15:15:04;3.92;;;0.75;;
74519;SDS011;63002;48.134;-1.948;2024-02-14T15:17:30;5.47;;;0.98;;
74519;SDS011;63002;48.134;-1.948;2024-02-14T15:19:56;4.03;;;0.60;;
74519;SDS011;63002;48.134;-1.948;2024-02-14T15:22:22;3.13;;;0.63;;
74519;SDS011;63002;48.134;-1.948;2024-02-14T15:24:55;3.03;;;0.70;;
74519;SDS011;63002;48.134;-1.948;2024-02-14T15:27:20;3.00;;;0.50;;
74519;SDS011;63002;48.134;-1.948;2024-02-14T15:29:49;2.75;;;0.70;;
74519;SDS011;63002;48.134;-1.948;2024-02-14T15:32:33;3.80;;;0.90;;
74519;SDS011;63002;48.134;-1.948;2024-02-14T15:35:18;3.13;;;0.55;;
74519;SDS011;63002;48.134;-1.948;2024-02-14T15:37:44;3.30;;;0.60;;
74519;SDS011;63002;48.134;-1.948;2024-02-14T15:40:13;2.95;;;0.73;;
74519;SDS011;63002;48.134;-1.948;2024-02-14T15:42:42;2.72;;;0.63;;
74519;SDS011;63002;48.134;-1.948;2024-02-14T15:45:08;3.30;;;0.77;;
74519;SDS011;63002;48.134;-1.948;2024-02-14T15:47:40;2.88;;;0.55;;
74519;SDS011;63002;48.134;-1.948;2024-02-14T15:50:09;1.63;;;0.52;;
74519;SDS011;63002;48.134;-1.948;2024-02-14T15:52:35;4.35;;;0.82;;
74519;SDS011;63002;48.134;-1.948;2024-02-14T15:55:00;4.18;;;0.60;;
74519;SDS011;63002;48.134;-1.948;2024-02-14T15:57:26;3.63;;;0.60;;
74519;SDS011;63002;48.134;-1.948;2024-02-14T15:59:52;6.00;;;0.60;;
74519;SDS011;63002;48.134;-1.948;2024-02-14T16:02:17;4.10;;;0.80;;
74519;SDS011;63002;48.134;-1.948;2024-02-14T16:04:43;2.33;;;0.50;;
74519;SDS011;63002;48.134;-1.948;2024-02-14T16:07:09;3.50;;;0.67;;
74519;SDS011;63002;48.134;-1.948;2024-02-14T16:09:35;3.65;;;0.88;;
74519;SDS011;63002;48.134;-1.948;2024-02-14T16:12:01;3.10;;;0.57;;
74519;SDS011;63002;48.134;-1.948;2024-02-14T16:14:27;3.13;;;0.70;;
74519;SDS011;63002;48.134;-1.948;2024-02-14T16:16:53;2.15;;;0.40;;
74519;SDS011;63002;48.134;-1.948;2024-02-14T16:19:19;3.87;;;0.60;;
74519;SDS011;63002;48.134;-1.948;2024-02-14T16:21:44;4.07;;;0.60;;
74519;SDS011;63002;48.134;-1.948;2024-02-14T16:24:10;3.77;;;0.60;;
74519;SDS011;63002;48.134;-1.948;2024-02-14T16:26:36;2.55;;;0.70;;
74519;SDS011;63002;48.134;-1.948;2024-02-14T16:29:02;3.30;;;0.60;;
74519;SDS011;63002;48.134;-1.948;2024-02-14T16:31:28;3.50;;;0.70;;
74519;SDS011;63002;48.134;-1.948;2024-02-14T16:33:53;8.03;;;0.80;;
74519;SDS011;63002;48.134;-1.948;2024-02-14T16:36:19;3.50;;;0.80;;
74519;SDS011;63002;48.134;-1.948;2024-02-14T16:38:46;3.33;;;1.00;;
74519;SDS011;63002;48.134;-1.948;2024-02-14T16:41:11;2.87;;;0.80;;
74519;SDS011;63002;48.134;-1.948;2024-02-14T16:43:37;2.33;;;0.65;;
74519;SDS011;63002;48.134;-1.948;2024-02-14T16:46:03;8.47;;;0.93;;
74519;SDS011;63002;48.134;-1.948;2024-02-14T16:48:29;4.35;;;0.60;;
74519;SDS011;63002;48.134;-1.948;2024-02-14T16:50:56;4.85;;;0.80;;
74519;SDS011;63002;48.134;-1.948;2024-02-14T16:53:22;4.03;;;0.50;;
74519;SDS011;63002;48.134;-1.948;2024-02-14T16:55:47;3.17;;;0.63;;
74519;SDS011;63002;48.134;-1.948;2024-02-14T16:58:13;5.47;;;1.07;;
74519;SDS011;63002;48.134;-1.948;2024-02-14T17:00:39;5.30;;;0.80;;
74519;SDS011;63002;48.134;-1.948;2024-02-14T17:03:05;5.80;;;1.00;;
74519;SDS011;63002;48.134;-1.948;2024-02-14T17:05:30;3.20;;;0.80;;
74519;SDS011;63002;48.134;-1.948;2024-02-14T17:07:56;3.03;;;0.90;;
74519;SDS011;63002;48.134;-1.948;2024-02-14T17:10:22;2.95;;;0.60;;
74519;SDS011;63002;48.134;-1.948;2024-02-14T17:12:49;4.30;;;0.85;;
74519;SDS011;63002;48.134;-1.948;2024-02-14T17:15:15;4.33;;;0.87;;
74519;SDS011;63002;48.134;-1.948;2024-02-14T17:17:40;3.83;;;0.80;;
74519;SDS011;63002;48.134;-1.948;2024-02-14T17:20:06;3.67;;;0.80;;
74519;SDS011;63002;48.134;-1.948;2024-02-14T17:22:34;5.95;;;0.98;;
74519;SDS011;63002;48.134;-1.948;2024-02-14T17:25:00;6.40;;;1.00;;
74519;SDS011;63002;48.134;-1.948;2024-02-14T17:27:26;5.43;;;1.00;;
74519;SDS011;63002;48.134;-1.948;2024-02-14T17:29:52;5.07;;;0.80;;
74519;SDS011;63002;48.134;-1.948;2024-02-14T17:32:18;4.90;;;1.03;;
74519;SDS011;63002;48.134;-1.948;2024-02-14T17:34:46;4.20;;;0.77;;
74519;SDS011;63002;48.134;-1.948;2024-02-14T17:37:11;4.23;;;0.80;;
74519;SDS011;63002;48.134;-1.948;2024-02-14T17:39:37;4.13;;;0.85;;
74519;SDS011;63002;48.134;-1.948;2024-02-14T17:42:03;3.72;;;0.82;;
74519;SDS011;63002;48.134;-1.948;2024-02-14T17:44:29;3.67;;;0.70;;
74519;SDS011;63002;48.134;-1.948;2024-02-14T17:46:54;5.00;;;1.08;;
74519;SDS011;63002;48.134;-1.948;2024-02-14T17:49:20;12.65;;;1.05;;
74519;SDS011;63002;48.134;-1.948;2024-02-14T17:51:46;3.90;;;0.63;;
74519;SDS011;63002;48.134;-1.948;2024-02-14T17:54:15;3.77;;;0.87;;
74519;SDS011;63002;48.134;-1.948;2024-02-14T17:56:42;4.97;;;0.90;;
74519;SDS011;63002;48.134;-1.948;2024-02-14T17:59:09;6.22;;;0.70;;
74519;SDS011;63002;48.134;-1.948;2024-02-14T18:01:35;5.00;;;0.77;;
74519;SDS011;63002;48.134;-1.948;2024-02-14T18:04:01;3.85;;;0.90;;
74519;SDS011;63002;48.134;-1.948;2024-02-14T18:06:30;4.90;;;0.88;;
74519;SDS011;63002;48.134;-1.948;2024-02-14T18:08:56;5.90;;;0.82;;
74519;SDS011;63002;48.134;-1.948;2024-02-14T18:11:23;3.55;;;0.77;;
74519;SDS011;63002;48.134;-1.948;2024-02-14T18:13:49;4.38;;;0.70;;
74519;SDS011;63002;48.134;-1.948;2024-02-14T18:16:18;4.93;;;0.80;;
74519;SDS011;63002;48.134;-1.948;2024-02-14T18:18:44;3.25;;;1.00;;
74519;SDS011;63002;48.134;-1.948;2024-02-14T18:21:10;3.63;;;0.70;;
74519;SDS011;63002;48.134;-1.948;2024-02-14T18:23:36;2.65;;;0.63;;
74519;SDS011;63002;48.134;-1.948;2024-02-14T18:26:02;3.47;;;0.80;;
74519;SDS011;63002;48.134;-1.948;2024-02-14T18:28:29;3.05;;;0.70;;
74519;SDS011;63002;48.134;-1.948;2024-02-14T18:31:02;3.75;;;0.82;;
74519;SDS011;63002;48.134;-1.948;2024-02-14T18:33:32;3.88;;;0.60;;
74519;SDS011;63002;48.134;-1.948;2024-02-14T18:35:58;3.72;;;0.98;;
74519;SDS011;63002;48.134;-1.948;2024-02-14T18:38:26;5.77;;;1.17;;
74519;SDS011;63002;48.134;-1.948;2024-02-14T18:40:56;5.75;;;1.10;;
74519;SDS011;63002;48.134;-1.948;2024-02-14T18:43:25;8.82;;;1.00;;
74519;SDS011;63002;48.134;-1.948;2024-02-14T18:45:52;4.13;;;1.20;;
74519;SDS011;63002;48.134;-1.948;2024-02-14T18:48:18;7.10;;;1.30;;
74519;SDS011;63002;48.134;-1.948;2024-02-14T18:50:44;6.67;;;1.57;;
74519;SDS011;63002;48.134;-1.948;2024-02-14T18:53:10;4.70;;;1.23;;
74519;SDS011;63002;48.134;-1.948;2024-02-14T18:55:35;6.20;;;1.58;;
74519;SDS011;63002;48.134;-1.948;2024-02-14T18:58:01;6.07;;;1.70;;
74519;SDS011;63002;48.134;-1.948;2024-02-14T19:00:27;5.10;;;1.45;;
74519;SDS011;63002;48.134;-1.948;2024-02-14T19:02:52;5.55;;;1.70;;
74519;SDS011;63002;48.134;-1.948;2024-02-14T19:05:19;7.17;;;2.23;;
74519;SDS011;63002;48.134;-1.948;2024-02-14T19:07:45;8.20;;;1.95;;
74519;SDS011;63002;48.134;-1.948;2024-02-14T19:10:10;8.30;;;2.63;;
74519;SDS011;63002;48.134;-1.948;2024-02-14T19:12:36;11.10;;;3.92;;
74519;SDS011;63002;48.134;-1.948;2024-02-14T19:15:02;11.17;;;4.50;;
74519;SDS011;63002;48.134;-1.948;2024-02-14T19:17:29;9.10;;;3.67;;
74519;SDS011;63002;48.134;-1.948;2024-02-14T19:19:56;10.90;;;3.90;;
74519;SDS011;63002;48.134;-1.948;2024-02-14T19:22:22;9.23;;;3.07;;
74519;SDS011;63002;48.134;-1.948;2024-02-14T19:24:47;13.65;;;3.50;;
74519;SDS011;63002;48.134;-1.948;2024-02-14T19:27:13;11.80;;;3.53;;
74519;SDS011;63002;48.134;-1.948;2024-02-14T19:29:39;11.40;;;3.30;;
74519;SDS011;63002;48.134;-1.948;2024-02-14T19:32:04;10.73;;;2.90;;
74519;SDS011;63002;48.134;-1.948;2024-02-14T19:34:30;9.48;;;3.05;;
74519;SDS011;63002;48.134;-1.948;2024-02-14T19:36:56;8.63;;;2.60;;
74519;SDS011;63002;48.134;-1.948;2024-02-14T19:39:22;12.23;;;2.83;;
74519;SDS011;63002;48.134;-1.948;2024-02-14T19:41:47;11.43;;;2.90;;
74519;SDS011;63002;48.134;-1.948;2024-02-14T19:44:13;8.98;;;2.70;;
74519;SDS011;63002;48.134;-1.948;2024-02-14T19:46:39;7.88;;;2.08;;
74519;SDS011;63002;48.134;-1.948;2024-02-14T19:49:05;9.80;;;2.00;;
74519;SDS011;63002;48.134;-1.948;2024-02-14T19:51:32;8.32;;;2.00;;
74519;SDS011;63002;48.134;-1.948;2024-02-14T19:53:59;8.75;;;2.28;;
74519;SDS011;63002;48.134;-1.948;2024-02-14T19:56:25;8.35;;;2.13;;
74519;SDS011;63002;48.134;-1.948;2024-02-14T19:58:53;8.80;;;2.03;;
74519;SDS011;63002;48.134;-1.948;2024-02-14T20:01:19;7.53;;;2.35;;
74519;SDS011;63002;48.134;-1.948;2024-02-14T20:03:45;6.90;;;2.03;;
74519;SDS011;63002;48.134;-1.948;2024-02-14T20:06:11;9.43;;;2.40;;
74519;SDS011;63002;48.134;-1.948;2024-02-14T20:08:37;13.20;;;2.05;;
74519;SDS011;63002;48.134;-1.948;2024-02-14T20:11:06;8.48;;;1.80;;
74519;SDS011;63002;48.134;-1.948;2024-02-14T20:13:34;8.52;;;2.42;;
74519;SDS011;63002;48.134;-1.948;2024-02-14T20:16:01;11.20;;;1.95;;
74519;SDS011;63002;48.134;-1.948;2024-02-14T20:18:27;7.40;;;1.73;;
74519;SDS011;63002;48.134;-1.948;2024-02-14T20:20:53;8.20;;;1.80;;
74519;SDS011;63002;48.134;-1.948;2024-02-14T20:23:19;7.78;;;2.05;;
74519;SDS011;63002;48.134;-1.948;2024-02-14T20:25:45;6.73;;;1.77;;
74519;SDS011;63002;48.134;-1.948;2024-02-14T20:28:10;7.18;;;1.90;;
74519;SDS011;63002;48.134;-1.948;2024-02-14T20:30:37;6.75;;;1.63;;